sensor_id;sensor_type;location;lat;lon;timestamp;pressure;altitude;pressure_sealevel;temperature;humidity
29569;BME280;16501;51.462;14.346;2023-05-24T00:01:45;100346.59;;;11.49;99.57
29569;BME280;16501;51.462;14.346;2023-05-24T00:04:10;100340.25;;;11.64;100.00
29569;BME280;16501;51.462;14.346;2023-05-24T00:06:36;100366.13;;;11.68;100.00
29569;BME280;16501;51.462;14.346;2023-05-24T00:09:02;100370.19;;;11.67;99.38
29569;BME280;16501;51.462;14.346;2023-05-24T00:11:27;100351.00;;;11.41;99.82
29569;BME280;16501;51.462;14.346;2023-05-24T00:13:52;100330.69;;;11.46;100.00
29569;BME280;16501;51.462;14.346;2023-05-24T00:16:18;100330.94;;;11.58;100.00
29569;BME280;16501;51.462;14.346;2023-05-24T00:18:43;100352.53;;;11.42;99.13
29569;BME280;16501;51.462;14.346;2023-05-24T00:21:12;100370.00;;;11.46;99.19
29569;BME280;16501;51.462;14.346;2023-05-24T00:23:37;100366.47;;;11.37;98.13
29569;BME280;16501;51.462;14.346;2023-05-24T00:26:05;100373.81;;;11.34;97.92
29569;BME280;16501;51.462;14.346;2023-05-24T00:28:31;100375.63;;;11.46;99.13
29569;BME280;16501;51.462;14.346;2023-05-24T00:30:59;100370.00;;;11.46;98.05
29569;BME280;16501;51.462;14.346;2023-05-24T00:33:25;100336.69;;;11.39;98.18
29569;BME280;16501;51.462;14.346;2023-05-24T00:35:52;100367.72;;;11.60;98.17
29569;BME280;16501;51.462;14.346;2023-05-24T00:38:21;100375.16;;;11.48;96.87
29569;BME280;16501;51.462;14.346;2023-05-24T00:40:47;100350.50;;;11.19;96.61
29569;BME280;16501;51.462;14.346;2023-05-24T00:43:13;100341.09;;;10.98;96.11
29569;BME280;16501;51.462;14.346;2023-05-24T00:45:39;100355.41;;;11.00;97.26
29569;BME280;16501;51.462;14.346;2023-05-24T00:48:04;100366.16;;;11.01;96.63
29569;BME280;16501;51.462;14.346;2023-05-24T00:50:30;100371.38;;;11.18;97.24
29569;BME280;16501;51.462;14.346;2023-05-24T00:52:59;100383.13;;;11.40;97.99
29569;BME280;16501;51.462;14.346;2023-05-24T00:55:26;100360.00;;;11.21;97.11
29569;BME280;16501;51.462;14.346;2023-05-24T00:57:51;100366.41;;;11.22;96.59
29569;BME280;16501;51.462;14.346;2023-05-24T01:00:17;100375.31;;;11.11;96.97
29569;BME280;16501;51.462;14.346;2023-05-24T01:02:42;100368.75;;;11.14;97.10
29569;BME280;16501;51.462;14.346;2023-05-24T01:05:07;100378.47;;;11.04;97.26
29569;BME280;16501;51.462;14.346;2023-05-24T01:10:12;100397.63;;;11.05;97.03
29569;BME280;16501;51.462;14.346;2023-05-24T01:12:49;100393.59;;;11.06;96.40
29569;BME280;16501;51.462;14.346;2023-05-24T01:18:15;100371.31;;;11.03;96.08
29569;BME280;16501;51.462;14.346;2023-05-24T01:26:18;100396.91;;;10.86;94.44
29569;BME280;16501;51.462;14.346;2023-05-24T01:28:46;100387.84;;;10.91;95.37
29569;BME280;16501;51.462;14.346;2023-05-24T01:31:13;100374.94;;;10.94;95.28
29569;BME280;16501;51.462;14.346;2023-05-24T01:33:43;100394.56;;;10.94;95.33
29569;BME280;16501;51.462;14.346;2023-05-24T01:36:09;100377.78;;;10.75;95.84
29569;BME280;16501;51.462;14.346;2023-05-24T01:38:35;100386.16;;;10.85;95.88
29569;BME280;16501;51.462;14.346;2023-05-24T01:41:09;100387.38;;;10.93;95.41
29569;BME280;16501;51.462;14.346;2023-05-24T01:43:42;100405.50;;;10.92;94.29
29569;BME280;16501;51.462;14.346;2023-05-24T01:46:21;100412.38;;;10.82;94.83
29569;BME280;16501;51.462;14.346;2023-05-24T01:49:05;100389.53;;;10.55;94.66
29569;BME280;16501;51.462;14.346;2023-05-24T01:51:37;100393.72;;;10.51;94.81
29569;BME280;16501;51.462;14.346;2023-05-24T01:54:05;100407.56;;;10.73;95.00
29569;BME280;16501;51.462;14.346;2023-05-24T01:56:30;100392.44;;;10.70;95.24
29569;BME280;16501;51.462;14.346;2023-05-24T01:58:58;100362.59;;;10.49;95.36
29569;BME280;16501;51.462;14.346;2023-05-24T02:01:25;100420.75;;;10.91;94.22
29569;BME280;16501;51.462;14.346;2023-05-24T02:03:50;100389.63;;;10.70;94.67
29569;BME280;16501;51.462;14.346;2023-05-24T02:06:16;100400.06;;;10.79;94.51
29569;BME280;16501;51.462;14.346;2023-05-24T02:08:41;100426.06;;;10.80;94.30
29569;BME280;16501;51.462;14.346;2023-05-24T02:11:06;100407.06;;;10.74;93.66
29569;BME280;16501;51.462;14.346;2023-05-24T02:13:32;100397.75;;;10.68;93.95
29569;BME280;16501;51.462;14.346;2023-05-24T02:15:57;100407.34;;;10.86;94.20
29569;BME280;16501;51.462;14.346;2023-05-24T02:18:22;100428.88;;;10.70;93.00
29569;BME280;16501;51.462;14.346;2023-05-24T02:20:47;100423.13;;;10.74;93.20
29569;BME280;16501;51.462;14.346;2023-05-24T02:23:13;100408.03;;;10.71;93.27
29569;BME280;16501;51.462;14.346;2023-05-24T02:25:38;100418.59;;;10.86;93.39
29569;BME280;16501;51.462;14.346;2023-05-24T02:28:03;100405.97;;;10.81;92.99
29569;BME280;16501;51.462;14.346;2023-05-24T02:30:29;100418.59;;;10.86;92.92
29569;BME280;16501;51.462;14.346;2023-05-24T02:32:54;100415.94;;;10.82;92.33
29569;BME280;16501;51.462;14.346;2023-05-24T02:35:20;100413.31;;;10.79;92.67
29569;BME280;16501;51.462;14.346;2023-05-24T02:37:46;100414.69;;;10.83;93.94
29569;BME280;16501;51.462;14.346;2023-05-24T02:40:11;100426.84;;;10.80;93.64
29569;BME280;16501;51.462;14.346;2023-05-24T02:42:37;100415.16;;;10.72;93.94
29569;BME280;16501;51.462;14.346;2023-05-24T02:45:02;100416.41;;;10.81;94.33
29569;BME280;16501;51.462;14.346;2023-05-24T02:47:28;100402.41;;;10.71;94.02
29569;BME280;16501;51.462;14.346;2023-05-24T02:49:54;100404.41;;;10.71;94.33
29569;BME280;16501;51.462;14.346;2023-05-24T02:52:19;100435.88;;;10.84;93.99
29569;BME280;16501;51.462;14.346;2023-05-24T02:54:48;100382.94;;;10.59;94.86
29569;BME280;16501;51.462;14.346;2023-05-24T02:57:14;100404.59;;;10.58;93.57
29569;BME280;16501;51.462;14.346;2023-05-24T02:59:39;100425.19;;;10.64;94.16
29569;BME280;16501;51.462;14.346;2023-05-24T03:02:04;100427.03;;;10.67;94.84
29569;BME280;16501;51.462;14.346;2023-05-24T03:04:30;100425.81;;;10.59;94.23
29569;BME280;16501;51.462;14.346;2023-05-24T03:06:55;100399.50;;;10.38;94.07
29569;BME280;16501;51.462;14.346;2023-05-24T03:09:20;100397.16;;;10.46;94.16
29569;BME280;16501;51.462;14.346;2023-05-24T03:11:45;100430.78;;;10.64;93.46
29569;BME280;16501;51.462;14.346;2023-05-24T03:14:11;100414.41;;;10.53;93.77
29569;BME280;16501;51.462;14.346;2023-05-24T03:16:36;100436.41;;;10.64;93.53
29569;BME280;16501;51.462;14.346;2023-05-24T03:19:02;100427.97;;;10.64;93.49
29569;BME280;16501;51.462;14.346;2023-05-24T03:21:28;100420.50;;;10.61;93.24
29569;BME280;16501;51.462;14.346;2023-05-24T03:23:55;100414.91;;;10.61;93.38
29569;BME280;16501;51.462;14.346;2023-05-24T03:26:21;100403.84;;;10.48;93.16
29569;BME280;16501;51.462;14.346;2023-05-24T03:28:46;100392.47;;;10.43;92.53
29569;BME280;16501;51.462;14.346;2023-05-24T03:31:12;100422.03;;;10.62;92.60
29569;BME280;16501;51.462;14.346;2023-05-24T03:33:37;100429.06;;;10.67;92.95
29569;BME280;16501;51.462;14.346;2023-05-24T03:36:03;100427.97;;;10.64;93.29
29569;BME280;16501;51.462;14.346;2023-05-24T03:38:29;100429.06;;;10.57;92.79
29569;BME280;16501;51.462;14.346;2023-05-24T03:40:55;100436.06;;;10.53;92.52
29569;BME280;16501;51.462;14.346;2023-05-24T03:43:21;100427.69;;;10.44;93.30
29569;BME280;16501;51.462;14.346;2023-05-24T03:45:46;100407.09;;;10.28;93.12
29569;BME280;16501;51.462;14.346;2023-05-24T03:48:12;100432.38;;;10.47;92.70
29569;BME280;16501;51.462;14.346;2023-05-24T03:50:37;100428.44;;;10.44;92.64
29569;BME280;16501;51.462;14.346;2023-05-24T03:53:02;100451.81;;;10.50;93.20
29569;BME280;16501;51.462;14.346;2023-05-24T03:55:27;100460.41;;;10.47;92.79
29569;BME280;16501;51.462;14.346;2023-05-24T03:57:53;100431.53;;;10.18;92.32
29569;BME280;16501;51.462;14.346;2023-05-24T04:00:18;100440.88;;;10.25;92.02
29569;BME280;16501;51.462;14.346;2023-05-24T04:02:43;100447.56;;;10.27;92.40
29569;BME280;16501;51.462;14.346;2023-05-24T04:05:09;100449.78;;;10.32;93.04
29569;BME280;16501;51.462;14.346;2023-05-24T04:07:35;100459.13;;;10.29;91.59
29569;BME280;16501;51.462;14.346;2023-05-24T04:10:05;100455.22;;;10.36;91.65
29569;BME280;16501;51.462;14.346;2023-05-24T04:12:31;100472.69;;;10.40;91.71
29569;BME280;16501;51.462;14.346;2023-05-24T04:14:57;100475.31;;;10.34;91.18
29569;BME280;16501;51.462;14.346;2023-05-24T04:17:22;100482.00;;;10.28;91.40
29569;BME280;16501;51.462;14.346;2023-05-24T04:19:51;100431.06;;;10.02;91.36
29569;BME280;16501;51.462;14.346;2023-05-24T04:22:16;100465.38;;;10.33;92.42
29569;BME280;16501;51.462;14.346;2023-05-24T04:24:43;100464.72;;;10.29;91.59
29569;BME280;16501;51.462;14.346;2023-05-24T04:27:09;100467.72;;;10.35;91.61
29569;BME280;16501;51.462;14.346;2023-05-24T04:29:34;100484.22;;;10.42;91.90
29569;BME280;16501;51.462;14.346;2023-05-24T04:32:00;100477.16;;;10.28;92.81
29569;BME280;16501;51.462;14.346;2023-05-24T04:34:27;100490.91;;;10.45;93.44
29569;BME280;16501;51.462;14.346;2023-05-24T04:36:54;100474.09;;;10.35;92.77
29569;BME280;16501;51.462;14.346;2023-05-24T04:39:19;100464.91;;;10.35;92.13
29569;BME280;16501;51.462;14.346;2023-05-24T04:41:44;100485.13;;;10.48;92.28
29569;BME280;16501;51.462;14.346;2023-05-24T04:44:10;100488.56;;;10.34;92.38
29569;BME280;16501;51.462;14.346;2023-05-24T04:46:35;100471.88;;;10.30;92.92
29569;BME280;16501;51.462;14.346;2023-05-24T04:49:00;100487.47;;;10.41;93.49
29569;BME280;16501;51.462;14.346;2023-05-24T04:51:26;100485.63;;;10.47;92.00
29569;BME280;16501;51.462;14.346;2023-05-24T04:53:51;100506.00;;;10.66;91.79
29569;BME280;16501;51.462;14.346;2023-05-24T04:56:17;100489.19;;;10.47;91.97
29569;BME280;16501;51.462;14.346;2023-05-24T04:58:43;100505.22;;;10.65;92.03
29569;BME280;16501;51.462;14.346;2023-05-24T05:01:08;100510.06;;;10.65;92.49
29569;BME280;16501;51.462;14.346;2023-05-24T05:03:34;100496.34;;;10.67;92.28
29569;BME280;16501;51.462;14.346;2023-05-24T05:05:59;100488.56;;;10.52;91.26
29569;BME280;16501;51.462;14.346;2023-05-24T05:08:24;100522.22;;;10.71;92.20
29569;BME280;16501;51.462;14.346;2023-05-24T05:10:50;100511.00;;;10.62;91.56
29569;BME280;16501;51.462;14.346;2023-05-24T05:13:15;100496.03;;;10.46;90.35
29569;BME280;16501;51.462;14.346;2023-05-24T05:15:40;100493.84;;;10.32;89.67
29569;BME280;16501;51.462;14.346;2023-05-24T05:18:06;100508.50;;;10.45;89.59
29569;BME280;16501;51.462;14.346;2023-05-24T05:20:31;100487.91;;;10.30;89.39
29569;BME280;16501;51.462;14.346;2023-05-24T05:22:56;100512.25;;;10.61;89.61
29569;BME280;16501;51.462;14.346;2023-05-24T05:25:21;100508.19;;;10.71;90.52
29569;BME280;16501;51.462;14.346;2023-05-24T05:27:47;100500.41;;;10.56;89.85
29569;BME280;16501;51.462;14.346;2023-05-24T05:30:12;100478.47;;;10.36;88.73
29569;BME280;16501;51.462;14.346;2023-05-24T05:32:38;100543.72;;;10.74;88.59
29569;BME280;16501;51.462;14.346;2023-05-24T05:35:04;100525.94;;;10.59;87.82
29569;BME280;16501;51.462;14.346;2023-05-24T05:37:29;100527.97;;;10.58;87.97
29569;BME280;16501;51.462;14.346;2023-05-24T05:39:55;100536.69;;;10.60;86.91
29569;BME280;16501;51.462;14.346;2023-05-24T05:42:20;100539.69;;;10.75;87.45
29569;BME280;16501;51.462;14.346;2023-05-24T05:44:45;100517.25;;;10.75;89.45
29569;BME280;16501;51.462;14.346;2023-05-24T05:47:11;100524.09;;;10.74;88.32
29569;BME280;16501;51.462;14.346;2023-05-24T05:49:36;100527.50;;;10.87;88.78
29569;BME280;16501;51.462;14.346;2023-05-24T05:52:03;100527.19;;;10.94;89.47
29569;BME280;16501;51.462;14.346;2023-05-24T05:54:28;100521.59;;;10.94;89.49
29569;BME280;16501;51.462;14.346;2023-05-24T05:56:55;100533.28;;;10.93;86.68
29569;BME280;16501;51.462;14.346;2023-05-24T05:59:20;100530.94;;;10.91;87.60
29569;BME280;16501;51.462;14.346;2023-05-24T06:01:45;100536.41;;;10.86;86.92
29569;BME280;16501;51.462;14.346;2023-05-24T06:04:12;100529.06;;;10.79;88.14
29569;BME280;16501;51.462;14.346;2023-05-24T06:06:38;100530.97;;;10.73;87.36
29569;BME280;16501;51.462;14.346;2023-05-24T06:09:03;100548.25;;;10.71;85.47
29569;BME280;16501;51.462;14.346;2023-05-24T06:11:28;100535.75;;;10.72;85.56
29569;BME280;16501;51.462;14.346;2023-05-24T06:13:54;100553.38;;;10.82;86.39
29569;BME280;16501;51.462;14.346;2023-05-24T06:16:19;100533.59;;;10.67;85.68
29569;BME280;16501;51.462;14.346;2023-05-24T06:18:45;100538.88;;;10.65;85.59
29569;BME280;16501;51.462;14.346;2023-05-24T06:21:11;100550.44;;;10.77;85.51
29569;BME280;16501;51.462;14.346;2023-05-24T06:23:36;100537.34;;;10.73;84.68
29569;BME280;16501;51.462;14.346;2023-05-24T06:26:02;100561.03;;;10.91;85.63
29569;BME280;16501;51.462;14.346;2023-05-24T06:28:27;100552.13;;;10.74;84.94
29569;BME280;16501;51.462;14.346;2023-05-24T06:30:53;100558.66;;;10.71;85.40
29569;BME280;16501;51.462;14.346;2023-05-24T06:33:18;100542.63;;;10.62;85.06
29569;BME280;16501;51.462;14.346;2023-05-24T06:35:43;100557.72;;;10.83;86.60
29569;BME280;16501;51.462;14.346;2023-05-24T06:38:09;100537.03;;;10.71;86.55
29569;BME280;16501;51.462;14.346;2023-05-24T06:40:34;100558.81;;;10.95;84.50
29569;BME280;16501;51.462;14.346;2023-05-24T06:42:59;100567.88;;;11.08;84.45
29569;BME280;16501;51.462;14.346;2023-05-24T06:45:25;100556.97;;;11.01;85.96
29569;BME280;16501;51.462;14.346;2023-05-24T06:47:50;100589.97;;;11.25;85.38
29569;BME280;16501;51.462;14.346;2023-05-24T06:50:16;100583.72;;;11.39;85.76
29569;BME280;16501;51.462;14.346;2023-05-24T06:52:41;100590.63;;;11.29;81.76
29569;BME280;16501;51.462;14.346;2023-05-24T06:55:06;100575.94;;;11.25;82.56
29569;BME280;16501;51.462;14.346;2023-05-24T06:57:32;100578.78;;;11.16;83.72
29569;BME280;16501;51.462;14.346;2023-05-24T06:59:57;100572.06;;;11.13;81.66
29569;BME280;16501;51.462;14.346;2023-05-24T07:02:22;100583.75;;;11.21;83.92
29569;BME280;16501;51.462;14.346;2023-05-24T07:04:51;100574.75;;;10.89;82.36
29569;BME280;16501;51.462;14.346;2023-05-24T07:07:16;100581.91;;;10.81;83.79
29569;BME280;16501;51.462;14.346;2023-05-24T07:09:42;100602.16;;;10.94;84.07
29569;BME280;16501;51.462;14.346;2023-05-24T07:12:08;100588.28;;;10.81;83.38
29569;BME280;16501;51.462;14.346;2023-05-24T07:14:34;100581.91;;;10.81;82.01
29569;BME280;16501;51.462;14.346;2023-05-24T07:16:59;100594.38;;;10.89;81.83
29569;BME280;16501;51.462;14.346;2023-05-24T07:19:25;100609.78;;;11.12;83.39
29569;BME280;16501;51.462;14.346;2023-05-24T07:21:54;100592.50;;;10.95;82.07
29569;BME280;16501;51.462;14.346;2023-05-24T07:24:20;100606.53;;;11.13;81.76
29569;BME280;16501;51.462;14.346;2023-05-24T07:26:46;100598.13;;;11.04;81.56
29569;BME280;16501;51.462;14.346;2023-05-24T07:29:12;100613.09;;;11.01;82.72
29569;BME280;16501;51.462;14.346;2023-05-24T07:31:39;100594.69;;;11.00;83.67
29569;BME280;16501;51.462;14.346;2023-05-24T07:34:05;100609.66;;;11.06;82.56
29569;BME280;16501;51.462;14.346;2023-05-24T07:36:30;100597.94;;;10.99;81.32
29569;BME280;16501;51.462;14.346;2023-05-24T07:38:57;100593.13;;;11.08;81.77
29569;BME280;16501;51.462;14.346;2023-05-24T07:41:25;100618.03;;;11.25;79.31
29569;BME280;16501;51.462;14.346;2023-05-24T07:43:51;100599.50;;;11.27;80.58
29569;BME280;16501;51.462;14.346;2023-05-24T07:46:16;100590.16;;;11.30;81.49
29569;BME280;16501;51.462;14.346;2023-05-24T07:48:41;100601.81;;;11.38;80.63
29569;BME280;16501;51.462;14.346;2023-05-24T07:51:07;100578.75;;;11.25;78.68
29569;BME280;16501;51.462;14.346;2023-05-24T07:53:32;100597.44;;;11.46;79.17
29569;BME280;16501;51.462;14.346;2023-05-24T07:55:58;100549.78;;;11.19;79.90
29569;BME280;16501;51.462;14.346;2023-05-24T07:58:24;100605.69;;;11.59;78.95
29569;BME280;16501;51.462;14.346;2023-05-24T08:00:49;100583.41;;;11.37;77.37
29569;BME280;16501;51.462;14.346;2023-05-24T08:03:15;100599.63;;;11.42;77.99
29569;BME280;16501;51.462;14.346;2023-05-24T08:05:41;100605.22;;;11.51;78.15
29569;BME280;16501;51.462;14.346;2023-05-24T08:08:06;100594.16;;;11.39;78.71
29569;BME280;16501;51.462;14.346;2023-05-24T08:10:32;100599.31;;;11.40;76.53
29569;BME280;16501;51.462;14.346;2023-05-24T08:12:57;100624.41;;;11.44;74.34
29569;BME280;16501;51.462;14.346;2023-05-24T08:15:23;100628.94;;;11.50;74.16
29569;BME280;16501;51.462;14.346;2023-05-24T08:17:48;100625.19;;;11.54;74.15
29569;BME280;16501;51.462;14.346;2023-05-24T08:20:14;100602.13;;;11.49;76.25
29569;BME280;16501;51.462;14.346;2023-05-24T08:22:40;100631.88;;;11.65;73.83
29569;BME280;16501;51.462;14.346;2023-05-24T08:25:06;100593.09;;;11.36;74.55
29569;BME280;16501;51.462;14.346;2023-05-24T08:27:32;100614.41;;;11.61;72.48
29569;BME280;16501;51.462;14.346;2023-05-24T08:29:57;100629.97;;;11.72;72.57
29569;BME280;16501;51.462;14.346;2023-05-24T08:32:23;100620.19;;;11.67;73.22
29569;BME280;16501;51.462;14.346;2023-05-24T08:34:48;100625.94;;;11.63;73.18
29569;BME280;16501;51.462;14.346;2023-05-24T08:37:14;100615.38;;;11.58;72.77
29569;BME280;16501;51.462;14.346;2023-05-24T08:39:43;100633.72;;;11.68;72.24
29569;BME280;16501;51.462;14.346;2023-05-24T08:42:08;100625.47;;;11.74;71.57
29569;BME280;16501;51.462;14.346;2023-05-24T08:44:52;100633.25;;;11.70;72.56
29569;BME280;16501;51.462;14.346;2023-05-24T08:47:19;100640.59;;;11.77;72.79
29569;BME280;16501;51.462;14.346;2023-05-24T08:49:46;100616.47;;;11.42;70.94
29569;BME280;16501;51.462;14.346;2023-05-24T08:52:11;100632.53;;;11.60;70.20
29569;BME280;16501;51.462;14.346;2023-05-24T08:54:37;100630.69;;;11.48;70.21
29569;BME280;16501;51.462;14.346;2023-05-24T08:57:03;100613.84;;;11.29;68.72
29569;BME280;16501;51.462;14.346;2023-05-24T08:59:28;100655.16;;;11.57;69.51
29569;BME280;16501;51.462;14.346;2023-05-24T09:01:56;100635.50;;;11.47;68.93
29569;BME280;16501;51.462;14.346;2023-05-24T09:04:22;100652.94;;;11.61;70.44
29569;BME280;16501;51.462;14.346;2023-05-24T09:06:48;100659.66;;;11.73;68.17
29569;BME280;16501;51.462;14.346;2023-05-24T09:09:17;100658.38;;;11.74;66.80
29569;BME280;16501;51.462;14.346;2023-05-24T09:11:44;100667.56;;;11.83;68.53
29569;BME280;16501;51.462;14.346;2023-05-24T09:14:12;100666.34;;;11.75;68.33
29569;BME280;16501;51.462;14.346;2023-05-24T09:16:38;100662.44;;;11.73;68.65
29569;BME280;16501;51.462;14.346;2023-05-24T09:19:03;100661.34;;;11.79;66.08
29569;BME280;16501;51.462;14.346;2023-05-24T09:21:28;100647.34;;;11.61;65.91
29569;BME280;16501;51.462;14.346;2023-05-24T09:23:54;100646.41;;;11.64;66.98
29569;BME280;16501;51.462;14.346;2023-05-24T09:26:19;100666.97;;;11.70;66.40
29569;BME280;16501;51.462;14.346;2023-05-24T09:28:46;100664.63;;;11.68;65.66
29569;BME280;16501;51.462;14.346;2023-05-24T09:31:11;100663.22;;;11.73;66.47
29569;BME280;16501;51.462;14.346;2023-05-24T09:33:38;100648.09;;;11.61;69.29
29569;BME280;16501;51.462;14.346;2023-05-24T09:36:04;100662.94;;;11.62;68.77
29569;BME280;16501;51.462;14.346;2023-05-24T09:38:31;100657.63;;;11.64;68.74
29569;BME280;16501;51.462;14.346;2023-05-24T09:40:58;100681.66;;;11.74;68.27
29569;BME280;16501;51.462;14.346;2023-05-24T09:43:25;100680.25;;;11.69;69.32
29569;BME280;16501;51.462;14.346;2023-05-24T09:45:50;100657.94;;;11.66;69.68
29569;BME280;16501;51.462;14.346;2023-05-24T09:48:18;100680.38;;;11.84;69.53
29569;BME280;16501;51.462;14.346;2023-05-24T09:50:56;100681.16;;;11.85;67.52
29569;BME280;16501;51.462;14.346;2023-05-24T09:53:23;100671.94;;;11.75;68.58
29569;BME280;16501;51.462;14.346;2023-05-24T09:55:49;100666.63;;;11.77;71.14
29569;BME280;16501;51.462;14.346;2023-05-24T09:58:15;100665.41;;;11.78;72.42
29569;BME280;16501;51.462;14.346;2023-05-24T10:00:41;100637.34;;;11.60;67.62
29569;BME280;16501;51.462;14.346;2023-05-24T10:03:08;100670.72;;;11.76;67.14
29569;BME280;16501;51.462;14.346;2023-05-24T10:05:41;100675.88;;;11.78;67.17
29569;BME280;16501;51.462;14.346;2023-05-24T10:08:07;100689.13;;;11.77;66.13
29569;BME280;16501;51.462;14.346;2023-05-24T10:10:33;100689.59;;;11.76;66.95
29569;BME280;16501;51.462;14.346;2023-05-24T10:12:59;100669.94;;;11.76;66.55
29569;BME280;16501;51.462;14.346;2023-05-24T10:15:25;100679.44;;;11.78;67.36
29569;BME280;16501;51.462;14.346;2023-05-24T10:17:54;100681.91;;;11.85;67.36
29569;BME280;16501;51.462;14.346;2023-05-24T10:20:20;100695.34;;;12.00;66.51
29569;BME280;16501;51.462;14.346;2023-05-24T10:22:58;100690.81;;;11.84;65.85
29569;BME280;16501;51.462;14.346;2023-05-24T10:25:26;100688.19;;;11.89;68.37
29569;BME280;16501;51.462;14.346;2023-05-24T10:27:56;100705.94;;;12.05;66.48
29569;BME280;16501;51.462;14.346;2023-05-24T10:30:39;100687.25;;;11.93;67.12
29569;BME280;16501;51.462;14.346;2023-05-24T10:33:07;100687.19;;;12.11;66.94
29569;BME280;16501;51.462;14.346;2023-05-24T10:35:33;100696.56;;;12.08;66.59
29569;BME280;16501;51.462;14.346;2023-05-24T10:38:06;100675.84;;;11.96;66.12
29569;BME280;16501;51.462;14.346;2023-05-24T10:40:31;100712.63;;;12.17;66.57
29569;BME280;16501;51.462;14.346;2023-05-24T10:42:57;100704.22;;;12.07;66.13
29569;BME280;16501;51.462;14.346;2023-05-24T10:45:29;100697.50;;;12.05;66.22
29569;BME280;16501;51.462;14.346;2023-05-24T10:50:37;100678.81;;;11.83;66.06
29569;BME280;16501;51.462;14.346;2023-05-24T10:53:17;100647.94;;;11.74;65.75
29569;BME280;16501;51.462;14.346;2023-05-24T10:55:55;100701.28;;;11.93;65.17
29569;BME280;16501;51.462;14.346;2023-05-24T10:58:26;100684.91;;;11.91;67.36
29569;BME280;16501;51.462;14.346;2023-05-24T11:00:52;100687.25;;;12.02;67.10
29569;BME280;16501;51.462;14.346;2023-05-24T11:03:17;100714.53;;;12.11;69.04
29569;BME280;16501;51.462;14.346;2023-05-24T11:08:14;100709.94;;;12.22;65.25
29569;BME280;16501;51.462;14.346;2023-05-24T11:10:39;100687.84;;;12.06;nan
29569;BME280;16501;51.462;14.346;2023-05-24T11:13:09;100730.44;;;12.23;65.83
29569;BME280;16501;51.462;14.346;2023-05-24T11:15:35;100723.69;;;12.30;66.58
29569;BME280;16501;51.462;14.346;2023-05-24T11:20:38;100703.56;;;12.22;64.01
29569;BME280;16501;51.462;14.346;2023-05-24T11:23:06;100705.91;;;12.23;61.97
29569;BME280;16501;51.462;14.346;2023-05-24T11:25:33;100691.97;;;12.29;63.33
29569;BME280;16501;51.462;14.346;2023-05-24T11:28:01;100692.78;;;12.30;63.83
29569;BME280;16501;51.462;14.346;2023-05-24T11:30:27;100691.44;;;12.40;63.47
29569;BME280;16501;51.462;14.346;2023-05-24T11:32:52;100704.28;;;12.41;63.45
29569;BME280;16501;51.462;14.346;2023-05-24T11:35:18;100709.53;;;12.48;64.41
29569;BME280;16501;51.462;14.346;2023-05-24T11:37:44;100704.00;;;12.30;62.88
29569;BME280;16501;51.462;14.346;2023-05-24T11:40:10;100715.50;;;12.41;63.71
29569;BME280;16501;51.462;14.346;2023-05-24T11:42:36;100722.09;;;12.38;63.69
29569;BME280;16501;51.462;14.346;2023-05-24T11:45:04;100721.47;;;12.34;63.51
29569;BME280;16501;51.462;14.346;2023-05-24T11:47:34;100719.56;;;12.40;65.10
29569;BME280;16501;51.462;14.346;2023-05-24T11:50:00;100720.78;;;12.48;65.01
29569;BME280;16501;51.462;14.346;2023-05-24T11:52:25;100718.56;;;12.61;63.58
29569;BME280;16501;51.462;14.346;2023-05-24T11:54:51;100698.41;;;12.20;63.27
29569;BME280;16501;51.462;14.346;2023-05-24T11:57:18;100726.25;;;12.52;64.84
29569;BME280;16501;51.462;14.346;2023-05-24T11:59:46;100733.41;;;12.62;63.82
29569;BME280;16501;51.462;14.346;2023-05-24T12:02:12;100724.72;;;12.51;63.67
29569;BME280;16501;51.462;14.346;2023-05-24T12:04:37;100727.53;;;12.51;63.48
29569;BME280;16501;51.462;14.346;2023-05-24T12:07:03;100717.78;;;12.61;63.67
29569;BME280;16501;51.462;14.346;2023-05-24T12:09:29;100726.34;;;12.67;63.10
29569;BME280;16501;51.462;14.346;2023-05-24T12:11:54;100721.31;;;12.71;65.94
29569;BME280;16501;51.462;14.346;2023-05-24T12:14:23;100733.25;;;12.90;65.72
29569;BME280;16501;51.462;14.346;2023-05-24T12:16:53;100730.09;;;12.63;63.50
29569;BME280;16501;51.462;14.346;2023-05-24T12:19:20;100757.00;;;12.55;63.19
29569;BME280;16501;51.462;14.346;2023-05-24T12:21:46;100731.22;;;12.57;64.46
29569;BME280;16501;51.462;14.346;2023-05-24T12:24:14;100747.50;;;12.86;64.74
29569;BME280;16501;51.462;14.346;2023-05-24T12:26:45;100730.94;;;13.36;64.53
29569;BME280;16501;51.462;14.346;2023-05-24T12:29:11;100708.81;;;13.44;60.02
29569;BME280;16501;51.462;14.346;2023-05-24T12:31:40;100717.72;;;13.43;60.10
29569;BME280;16501;51.462;14.346;2023-05-24T12:34:10;100718.63;;;13.00;60.87
29569;BME280;16501;51.462;14.346;2023-05-24T12:36:35;100705.75;;;12.85;59.06
29569;BME280;16501;51.462;14.346;2023-05-24T12:39:15;100728.22;;;13.18;62.00
29569;BME280;16501;51.462;14.346;2023-05-24T12:41:41;100704.75;;;13.21;62.59
29569;BME280;16501;51.462;14.346;2023-05-24T12:44:06;100699.88;;;13.21;60.18
29569;BME280;16501;51.462;14.346;2023-05-24T12:46:33;100707.88;;;13.62;59.88
29569;BME280;16501;51.462;14.346;2023-05-24T12:48:59;100705.84;;;13.92;59.11
29569;BME280;16501;51.462;14.346;2023-05-24T12:51:28;100723.47;;;14.02;57.16
29569;BME280;16501;51.462;14.346;2023-05-24T12:53:53;100710.25;;;13.93;58.36
29569;BME280;16501;51.462;14.346;2023-05-24T12:56:19;100709.81;;;13.56;56.78